Perryville, Kentucky
Current Conditions -  °F | °C
As of 1:15 PM on Saturday 25 Oct 2014 (Local Time) from KDVK Reporting Station
Broken Clouds Broken Clouds  
Wind Chill: 68°   Ceiling: 4300
Heat Index: 68°   Visibility: 10mi
Dew Point: 54°   Wind: 9mph
Humidity: 60%   Direction: 260°W
Pressure: 30.04"   Gusts: NA
Location:  37.65°N, 84.95°W
Report Text: KDVK 251715Z AUTO 26008KT 10SM SCT027 BKN043 BKN049 20/12 A3004 RMK AO2
Loading
Personal Weather Stations






























Interactive Weather Map
Tropical Storm Tracking
New forecast layout! Learn more

10-Day Weather Forecast

Advertisements
Track Severe Weather on mobile